FCN587 SBFZ-MUVR
Flight info
| Callsign | FCN587 |
|---|---|
| Flight time | N/A |
| Altitude | 36000 |
| Route | ISUPI UM791 ARNAM/N0492F380 UM791 BGI UA555 ILURI A555 TUUNA RTE4 JOSHE RTE12 MAZ G633 MELLA/N0484F400 UW9 LRN UW24 KODIX UL212 UKULO |
| Aircraft | A35K/H-SDE2E3GHIJ3J4J5LM1ORWXY/LB1D1 |
Departure
| Time | 2026-05-07 22:06 |
|---|---|
| Airport | Pinto Martins International Airport (SBFZ) |
Arrival
| Time | N/A |
|---|---|
| Airport | Juan Gualberto Gomez International Airport (MUVR) |
| Time | Latitude | Longitude | Altitude | Speed | Heading |
|---|---|---|---|---|---|
| 2026-05-07 21:42 | -3.77810 | -38.53433 | 87 ft | 0 kts | 195° |
| 2026-05-07 21:55 | -3.77808 | -38.53433 | 87 ft | 3 kts | 195° |
| 2026-05-07 21:56 | -3.77783 | -38.53424 | 87 ft | 4 kts | 209° |
| 2026-05-07 21:56 | -3.77762 | -38.53408 | 90 ft | 4 kts | 232° |
| 2026-05-07 21:56 | -3.77750 | -38.53385 | 90 ft | 4 kts | 261° |
| 2026-05-07 21:56 | -3.77750 | -38.53358 | 88 ft | 4 kts | 283° |
| 2026-05-07 21:57 | -3.77758 | -38.53333 | 88 ft | 4 kts | 294° |
| 2026-05-07 21:57 | -3.77769 | -38.53308 | 89 ft | 4 kts | 289° |
| 2026-05-07 21:57 | -3.77775 | -38.53287 | 88 ft | 4 kts | 284° |
| 2026-05-07 21:57 | -3.77779 | -38.53272 | 88 ft | 0 kts | 284° |
| 2026-05-07 21:59 | -3.77778 | -38.53275 | 87 ft | 0 kts | 284° |
| 2026-05-07 21:59 | -3.77778 | -38.53277 | 87 ft | 1 kts | 284° |
| 2026-05-07 22:00 | -3.77775 | -38.53288 | 85 ft | 2 kts | 280° |
| 2026-05-07 22:00 | -3.77770 | -38.53307 | 90 ft | 6 kts | 285° |
| 2026-05-07 22:00 | -3.77756 | -38.53359 | 87 ft | 9 kts | 285° |
| 2026-05-07 22:00 | -3.77739 | -38.53424 | 92 ft | 11 kts | 285° |
| 2026-05-07 22:01 | -3.77718 | -38.53502 | 89 ft | 12 kts | 285° |
| 2026-05-07 22:01 | -3.77694 | -38.53591 | 92 ft | 14 kts | 285° |
| 2026-05-07 22:01 | -3.77667 | -38.53690 | 93 ft | 15 kts | 285° |
| 2026-05-07 22:01 | -3.77639 | -38.53798 | 94 ft | 17 kts | 285° |
| 2026-05-07 22:02 | -3.77607 | -38.53914 | 95 ft | 18 kts | 285° |
| 2026-05-07 22:02 | -3.77574 | -38.54038 | 94 ft | 19 kts | 285° |
| 2026-05-07 22:02 | -3.77539 | -38.54169 | 97 ft | 20 kts | 285° |
| 2026-05-07 22:02 | -3.77501 | -38.54308 | 94 ft | 21 kts | 285° |
| 2026-05-07 22:03 | -3.77472 | -38.54415 | 97 ft | 12 kts | 287° |
| 2026-05-07 22:03 | -3.77429 | -38.54487 | 98 ft | 7 kts | 324° |
| 2026-05-07 22:03 | -3.77428 | -38.54488 | 98 ft | 0 kts | 324° |
| 2026-05-07 22:03 | -3.77424 | -38.54489 | 98 ft | 4 kts | 338° |
| 2026-05-07 22:04 | -3.77383 | -38.54496 | 99 ft | 7 kts | 1° |
| 2026-05-07 22:04 | -3.77337 | -38.54483 | 98 ft | 6 kts | 34° |
| 2026-05-07 22:04 | -3.77319 | -38.54443 | 99 ft | 7 kts | 81° |
| 2026-05-07 22:04 | -3.77326 | -38.54392 | 99 ft | 8 kts | 104° |
| 2026-05-07 22:05 | -3.77329 | -38.54380 | 98 ft | 0 kts | 105° |
| 2026-05-07 22:05 | -3.77371 | -38.54225 | 98 ft | 60 kts | 105° |
| 2026-05-07 22:05 | -3.77546 | -38.53575 | 91 ft | 131 kts | 105° |
| 2026-05-07 22:05 | -3.77833 | -38.52506 | 231 ft | 178 kts | 104° |
| 2026-05-07 22:06 | -3.78201 | -38.51266 | 820 ft | 192 kts | 109° |
| 2026-05-07 22:06 | -3.78681 | -38.50003 | 1629 ft | 202 kts | 112° |
| 2026-05-07 22:06 | -3.79584 | -38.48777 | 1891 ft | 239 kts | 139° |
| 2026-05-07 22:06 | -3.81185 | -38.48075 | 2103 ft | 265 kts | 172° |
| 2026-05-07 22:07 | -3.83025 | -38.48271 | 2948 ft | 263 kts | 195° |
| 2026-05-07 22:07 | -3.84752 | -38.48600 | 4082 ft | 249 kts | 183° |
| 2026-05-07 22:07 | -3.86482 | -38.48504 | 4799 ft | 251 kts | 172° |
| 2026-05-07 22:07 | -3.88260 | -38.48411 | 5366 ft | 260 kts | 181° |
| 2026-05-07 22:08 | -3.90067 | -38.48516 | 5994 ft | 267 kts | 182° |
| 2026-05-07 22:08 | -3.91940 | -38.48695 | 6605 ft | 273 kts | 184° |
| 2026-05-07 22:08 | -3.93832 | -38.49008 | 7232 ft | 281 kts | 194° |
| 2026-05-07 22:08 | -3.95508 | -38.50036 | 7926 ft | 290 kts | 226° |
| 2026-05-07 22:09 | -3.96447 | -38.51836 | 8648 ft | 299 kts | 257° |
| 2026-05-07 22:09 | -3.96397 | -38.53918 | 9384 ft | 303 kts | 282° |
| 2026-05-07 22:09 | -3.95927 | -38.55989 | 10111 ft | 308 kts | 283° |
| 2026-05-07 22:09 | -3.95457 | -38.58138 | 10507 ft | 325 kts | 281° |
| 2026-05-07 22:10 | -3.95003 | -38.60420 | 10843 ft | 342 kts | 281° |
| 2026-05-07 22:10 | -3.94548 | -38.62819 | 11174 ft | 358 kts | 280° |
| 2026-05-07 22:10 | -3.94097 | -38.65323 | 11494 ft | 373 kts | 280° |
| 2026-05-07 22:10 | -3.93638 | -38.67918 | 11860 ft | 383 kts | 280° |
| 2026-05-07 22:11 | -3.93169 | -38.70574 | 12375 ft | 389 kts | 280° |
| 2026-05-07 22:11 | -3.92700 | -38.73250 | 12935 ft | 393 kts | 280° |
| 2026-05-07 22:11 | -3.92220 | -38.75956 | 13499 ft | 396 kts | 280° |
| 2026-05-07 22:11 | -3.91737 | -38.78680 | 14002 ft | 399 kts | 280° |
| 2026-05-07 22:12 | -3.91251 | -38.81426 | 14515 ft | 402 kts | 280° |
| 2026-05-07 22:12 | -3.90762 | -38.84190 | 15010 ft | 404 kts | 280° |
| 2026-05-07 22:12 | -3.90156 | -38.86941 | 15509 ft | 406 kts | 286° |
| 2026-05-07 22:12 | -3.89322 | -38.89650 | 16003 ft | 408 kts | 288° |
| 2026-05-07 22:13 | -3.88440 | -38.92355 | 16494 ft | 410 kts | 288° |
| 2026-05-07 22:13 | -3.87562 | -38.95044 | 16959 ft | 412 kts | 288° |
| 2026-05-07 22:13 | -3.86671 | -38.97785 | 17429 ft | 415 kts | 289° |
| 2026-05-07 22:13 | -3.85777 | -39.00537 | 17882 ft | 417 kts | 289° |
| 2026-05-07 22:14 | -3.84877 | -39.03311 | 18345 ft | 419 kts | 288° |
| 2026-05-07 22:14 | -3.83975 | -39.06092 | 18727 ft | 421 kts | 288° |
| 2026-05-07 22:14 | -3.83069 | -39.08887 | 19130 ft | 423 kts | 288° |
| 2026-05-07 22:14 | -3.82158 | -39.11699 | 19526 ft | 425 kts | 288° |
| 2026-05-07 22:15 | -3.81244 | -39.14519 | 19917 ft | 427 kts | 289° |
| 2026-05-07 22:15 | -3.80324 | -39.17358 | 20308 ft | 429 kts | 289° |
| 2026-05-07 22:15 | -3.79401 | -39.20204 | 20721 ft | 430 kts | 289° |
| 2026-05-07 22:15 | -3.78475 | -39.23060 | 21105 ft | 432 kts | 289° |
| 2026-05-07 22:16 | -3.77544 | -39.25931 | 21508 ft | 434 kts | 289° |
| 2026-05-07 22:16 | -3.76608 | -39.28815 | 21906 ft | 436 kts | 289° |
| 2026-05-07 22:16 | -3.75669 | -39.31710 | 22304 ft | 438 kts | 289° |
| 2026-05-07 22:16 | -3.74726 | -39.34619 | 22714 ft | 440 kts | 289° |
| 2026-05-07 22:17 | -3.73789 | -39.37506 | 23122 ft | 442 kts | 289° |
| 2026-05-07 22:17 | -3.72838 | -39.40438 | 23533 ft | 444 kts | 289° |
| 2026-05-07 22:17 | -3.71881 | -39.43387 | 23849 ft | 446 kts | 289° |
| 2026-05-07 22:17 | -3.70919 | -39.46350 | 24151 ft | 449 kts | 288° |
| 2026-05-07 22:18 | -3.69950 | -39.49335 | 24483 ft | 452 kts | 288° |
| 2026-05-07 22:18 | -3.67998 | -39.55348 | 25153 ft | 456 kts | 288° |
| 2026-05-07 22:18 | -3.67014 | -39.58378 | 25514 ft | 459 kts | 288° |
| 2026-05-07 22:19 | -3.66027 | -39.61418 | 25910 ft | 461 kts | 288° |
| 2026-05-07 22:19 | -3.65033 | -39.64479 | 26294 ft | 463 kts | 288° |
| 2026-05-07 22:19 | -3.64033 | -39.67558 | 26690 ft | 466 kts | 288° |
| 2026-05-07 22:19 | -3.63027 | -39.70654 | 27083 ft | 469 kts | 288° |
| 2026-05-07 22:20 | -3.62015 | -39.73769 | 27496 ft | 471 kts | 288° |
| 2026-05-07 22:20 | -3.60997 | -39.76902 | 27858 ft | 475 kts | 288° |
| 2026-05-07 22:20 | -3.59973 | -39.80052 | 28232 ft | 478 kts | 287° |
| 2026-05-07 22:20 | -3.58943 | -39.83222 | 28638 ft | 480 kts | 287° |
| 2026-05-07 22:21 | -3.57905 | -39.86415 | 29007 ft | 483 kts | 287° |
| 2026-05-07 22:21 | -3.56862 | -39.89622 | 29362 ft | 486 kts | 287° |
| 2026-05-07 22:21 | -3.55824 | -39.92814 | 29701 ft | 489 kts | 287° |
| 2026-05-07 22:21 | -3.54770 | -39.96058 | 30017 ft | 492 kts | 287° |
| 2026-05-07 22:22 | -3.53708 | -39.99322 | 30309 ft | 494 kts | 287° |
| 2026-05-07 22:22 | -3.52643 | -40.02597 | 30581 ft | 496 kts | 287° |
| 2026-05-07 22:22 | -3.51571 | -40.05890 | 30852 ft | 498 kts | 287° |
| 2026-05-07 22:22 | -3.50495 | -40.09197 | 31129 ft | 500 kts | 287° |
| 2026-05-07 22:23 | -3.49414 | -40.12519 | 31460 ft | 501 kts | 288° |
| 2026-05-07 22:23 | -3.48335 | -40.15832 | 31818 ft | 500 kts | 288° |
| 2026-05-07 22:23 | -3.47263 | -40.19125 | 32285 ft | 497 kts | 288° |
| 2026-05-07 22:23 | -3.46194 | -40.22411 | 32667 ft | 496 kts | 288° |
| 2026-05-07 22:24 | -3.45126 | -40.25689 | 33016 ft | 495 kts | 288° |
| 2026-05-07 22:24 | -3.44057 | -40.28973 | 33332 ft | 496 kts | 288° |
| 2026-05-07 22:24 | -3.42989 | -40.32250 | 33658 ft | 495 kts | 288° |
| 2026-05-07 22:24 | -3.41923 | -40.35526 | 34039 ft | 493 kts | 288° |
| 2026-05-07 22:25 | -3.40861 | -40.38787 | 34331 ft | 493 kts | 288° |
| 2026-05-07 22:25 | -3.39802 | -40.42038 | 34698 ft | 490 kts | 288° |
| 2026-05-07 22:25 | -3.38747 | -40.45274 | 34969 ft | 490 kts | 288° |
| 2026-05-07 22:25 | -3.37671 | -40.48506 | 35222 ft | 489 kts | 290° |
| 2026-05-07 22:26 | -3.36296 | -40.51622 | 35433 ft | 490 kts | 298° |
| 2026-05-07 22:26 | -3.34428 | -40.54471 | 35631 ft | 490 kts | 308° |
| 2026-05-07 22:26 | -3.32249 | -40.57091 | 35861 ft | 490 kts | 310° |
| 2026-05-07 22:27 | -3.27688 | -40.62212 | 35938 ft | 494 kts | 311° |
| 2026-05-07 22:27 | -3.23071 | -40.67304 | 35933 ft | 493 kts | 311° |
| 2026-05-07 22:28 | -3.18477 | -40.72414 | 35934 ft | 494 kts | 311° |
| 2026-05-07 22:28 | -3.13894 | -40.77544 | 35934 ft | 495 kts | 311° |
| 2026-05-07 22:29 | -3.09319 | -40.82677 | 35930 ft | 493 kts | 311° |
| 2026-05-07 22:29 | -3.04780 | -40.87767 | 35928 ft | 493 kts | 311° |
| 2026-05-07 22:30 | -3.00201 | -40.92900 | 35925 ft | 494 kts | 311° |
| 2026-05-07 22:30 | -2.95620 | -40.98033 | 35931 ft | 495 kts | 311° |
| 2026-05-07 22:31 | -2.91042 | -41.03163 | 35931 ft | 494 kts | 311° |
| 2026-05-07 22:31 | -2.86456 | -41.08301 | 35933 ft | 495 kts | 311° |
| 2026-05-07 22:32 | -2.81879 | -41.13428 | 35929 ft | 493 kts | 311° |
| 2026-05-07 22:32 | -2.77297 | -41.18560 | 35932 ft | 494 kts | 311° |
| 2026-05-07 22:33 | -2.72729 | -41.23676 | 35928 ft | 492 kts | 311° |
| 2026-05-07 22:33 | -2.68180 | -41.28770 | 35929 ft | 494 kts | 311° |
| 2026-05-07 22:34 | -2.63607 | -41.33890 | 35930 ft | 493 kts | 311° |
| 2026-05-07 22:34 | -2.59036 | -41.39007 | 35930 ft | 492 kts | 311° |
| 2026-05-07 22:35 | -2.54476 | -41.44112 | 35929 ft | 492 kts | 311° |
| 2026-05-07 22:35 | -2.49898 | -41.49237 | 35932 ft | 494 kts | 311° |
| 2026-05-07 22:36 | -2.45321 | -41.54360 | 35929 ft | 493 kts | 311° |
| 2026-05-07 22:36 | -2.40752 | -41.59473 | 35930 ft | 494 kts | 311° |
| 2026-05-07 22:37 | -2.36156 | -41.64615 | 35930 ft | 496 kts | 311° |
| 2026-05-07 22:37 | -2.31588 | -41.69725 | 35930 ft | 495 kts | 310° |
| 2026-05-07 22:38 | -2.26998 | -41.74861 | 35929 ft | 494 kts | 311° |
| 2026-05-07 22:38 | -2.22412 | -41.79991 | 35931 ft | 494 kts | 311° |
| 2026-05-07 22:39 | -2.17823 | -41.85124 | 35930 ft | 494 kts | 310° |
| 2026-05-07 22:39 | -2.13255 | -41.90265 | 35930 ft | 494 kts | 310° |
| 2026-05-07 22:40 | -2.08717 | -41.95416 | 35931 ft | 494 kts | 310° |
| 2026-05-07 22:40 | -2.04174 | -42.00571 | 35934 ft | 495 kts | 310° |
| 2026-05-07 22:41 | -1.99613 | -42.05737 | 35931 ft | 495 kts | 310° |
| 2026-05-07 22:41 | -1.95827 | -42.10022 | 35930 ft | 495 kts | 310° |
| 2026-05-07 22:42 | -1.90525 | -42.16023 | 35932 ft | 495 kts | 310° |
| 2026-05-07 22:42 | -1.86698 | -42.20354 | 35936 ft | 496 kts | 310° |
| 2026-05-07 22:43 | -1.82130 | -42.25523 | 35929 ft | 496 kts | 310° |
| 2026-05-07 22:43 | -1.77563 | -42.30690 | 35930 ft | 495 kts | 310° |
| 2026-05-07 22:44 | -1.72996 | -42.35858 | 35935 ft | 496 kts | 310° |
| 2026-05-07 22:44 | -1.68462 | -42.40988 | 35933 ft | 495 kts | 310° |
| 2026-05-07 22:45 | -1.63898 | -42.46152 | 35930 ft | 495 kts | 310° |
| 2026-05-07 22:45 | -1.59331 | -42.51318 | 35930 ft | 496 kts | 310° |
| 2026-05-07 22:46 | -1.54761 | -42.56488 | 35933 ft | 496 kts | 310° |
| 2026-05-07 22:46 | -1.50185 | -42.61663 | 35934 ft | 496 kts | 310° |
| 2026-05-07 22:47 | -1.45615 | -42.66832 | 35936 ft | 497 kts | 310° |
| 2026-05-07 22:47 | -1.41032 | -42.72014 | 35933 ft | 497 kts | 310° |
| 2026-05-07 22:48 | -1.36461 | -42.77184 | 35932 ft | 497 kts | 310° |
| 2026-05-07 22:48 | -1.31903 | -42.82326 | 35933 ft | 497 kts | 310° |
| 2026-05-07 22:49 | -1.27306 | -42.87489 | 35935 ft | 497 kts | 310° |
| 2026-05-07 22:49 | -1.22711 | -42.92650 | 35936 ft | 497 kts | 310° |
| 2026-05-07 22:50 | -1.18114 | -42.97816 | 35932 ft | 497 kts | 310° |
| 2026-05-07 22:50 | -1.13525 | -43.02975 | 35939 ft | 496 kts | 310° |
| 2026-05-07 22:51 | -1.08929 | -43.08144 | 35936 ft | 498 kts | 310° |
| 2026-05-07 22:51 | -1.04325 | -43.13318 | 35936 ft | 498 kts | 310° |
| 2026-05-07 22:52 | -0.99722 | -43.18493 | 35936 ft | 498 kts | 310° |
| 2026-05-07 22:52 | -0.95146 | -43.23637 | 35936 ft | 498 kts | 310° |
| 2026-05-07 22:53 | -0.90543 | -43.28810 | 35935 ft | 498 kts | 310° |
| 2026-05-07 22:53 | -0.85943 | -43.33980 | 35936 ft | 498 kts | 310° |
| 2026-05-07 22:54 | -0.81338 | -43.39157 | 35934 ft | 498 kts | 310° |
| 2026-05-07 22:54 | -0.76734 | -43.44330 | 35937 ft | 497 kts | 310° |
| 2026-05-07 22:55 | -0.72132 | -43.49502 | 35936 ft | 499 kts | 310° |
| 2026-05-07 22:55 | -0.67521 | -43.54684 | 35936 ft | 499 kts | 310° |
| 2026-05-07 22:56 | -0.62910 | -43.59869 | 35936 ft | 499 kts | 310° |
| 2026-05-07 22:56 | -0.58303 | -43.65051 | 35936 ft | 499 kts | 310° |
| 2026-05-07 22:57 | -0.53676 | -43.70247 | 35937 ft | 500 kts | 310° |
| 2026-05-07 22:57 | -0.49043 | -43.75450 | 35939 ft | 501 kts | 310° |
| 2026-05-07 22:58 | -0.44415 | -43.80648 | 35937 ft | 501 kts | 310° |
| 2026-05-07 22:58 | -0.39809 | -43.85824 | 35936 ft | 502 kts | 310° |
| 2026-05-07 22:59 | -0.35169 | -43.91039 | 35937 ft | 503 kts | 310° |
| 2026-05-07 22:59 | -0.30514 | -43.96269 | 35939 ft | 504 kts | 310° |
| 2026-05-07 23:00 | -0.25850 | -44.01510 | 35940 ft | 504 kts | 310° |
| 2026-05-07 23:00 | -0.21207 | -44.06727 | 35940 ft | 500 kts | 310° |
| 2026-05-07 23:01 | -0.16603 | -44.11899 | 35940 ft | 497 kts | 310° |
| 2026-05-07 23:01 | -0.12013 | -44.17057 | 35938 ft | 497 kts | 310° |
| 2026-05-07 23:02 | -0.07421 | -44.22217 | 35939 ft | 497 kts | 310° |
| 2026-05-07 23:02 | -0.02835 | -44.27369 | 35938 ft | 494 kts | 310° |
| 2026-05-07 23:03 | 0.01694 | -44.32456 | 35937 ft | 494 kts | 310° |
| 2026-05-07 23:03 | 0.06306 | -44.37641 | 35939 ft | 497 kts | 310° |
| 2026-05-07 23:04 | 0.10878 | -44.42778 | 35942 ft | 497 kts | 310° |
| 2026-05-07 23:04 | 0.15451 | -44.47915 | 35938 ft | 493 kts | 310° |
| 2026-05-07 23:05 | 0.20008 | -44.53035 | 35941 ft | 493 kts | 310° |
| 2026-05-07 23:05 | 0.24570 | -44.58161 | 35939 ft | 493 kts | 310° |
| 2026-05-07 23:06 | 0.29133 | -44.63288 | 35939 ft | 494 kts | 310° |
| 2026-05-07 23:06 | 0.33719 | -44.68442 | 35939 ft | 497 kts | 310° |
| 2026-05-07 23:07 | 0.38317 | -44.73608 | 35941 ft | 497 kts | 310° |
| 2026-05-07 23:07 | 0.42883 | -44.78739 | 35944 ft | 497 kts | 310° |
| 2026-05-07 23:08 | 0.47480 | -44.83904 | 35940 ft | 497 kts | 310° |
| 2026-05-07 23:08 | 0.52078 | -44.89071 | 35944 ft | 497 kts | 310° |
| 2026-05-07 23:09 | 0.56678 | -44.94241 | 35947 ft | 498 kts | 310° |
| 2026-05-07 23:09 | 0.61275 | -44.99408 | 35947 ft | 498 kts | 310° |
| 2026-05-07 23:10 | 0.65884 | -45.04587 | 35947 ft | 498 kts | 310° |
| 2026-05-07 23:10 | 0.70496 | -45.09770 | 35947 ft | 498 kts | 310° |
| 2026-05-07 23:11 | 0.75101 | -45.14948 | 35944 ft | 498 kts | 310° |
| 2026-05-07 23:11 | 0.79714 | -45.20130 | 35945 ft | 499 kts | 310° |
| 2026-05-07 23:12 | 0.84320 | -45.25307 | 35947 ft | 499 kts | 310° |
| 2026-05-07 23:12 | 0.88908 | -45.30464 | 35947 ft | 500 kts | 310° |
| 2026-05-07 23:13 | 0.93525 | -45.35653 | 35944 ft | 500 kts | 310° |
| 2026-05-07 23:13 | 0.98142 | -45.40846 | 35944 ft | 500 kts | 310° |
| 2026-05-07 23:14 | 1.02765 | -45.46043 | 35947 ft | 500 kts | 310° |
| 2026-05-07 23:14 | 1.07385 | -45.51234 | 35947 ft | 500 kts | 310° |
| 2026-05-07 23:15 | 1.12007 | -45.56429 | 35946 ft | 500 kts | 310° |
| 2026-05-07 23:15 | 1.16639 | -45.61636 | 35947 ft | 500 kts | 310° |
| 2026-05-07 23:16 | 1.21262 | -45.66835 | 35947 ft | 500 kts | 310° |
| 2026-05-07 23:16 | 1.25884 | -45.72031 | 35946 ft | 500 kts | 310° |
| 2026-05-07 23:17 | 1.30506 | -45.77228 | 35948 ft | 500 kts | 310° |
| 2026-05-07 23:17 | 1.35102 | -45.82396 | 35949 ft | 500 kts | 310° |
| 2026-05-07 23:18 | 1.39715 | -45.87584 | 35947 ft | 499 kts | 310° |
| 2026-05-07 23:18 | 1.44323 | -45.92767 | 35946 ft | 498 kts | 310° |
| 2026-05-07 23:19 | 1.48925 | -45.97944 | 35948 ft | 498 kts | 310° |
| 2026-05-07 23:19 | 1.53534 | -46.03127 | 35947 ft | 498 kts | 310° |
| 2026-05-07 23:20 | 1.58135 | -46.08303 | 35946 ft | 498 kts | 310° |
| 2026-05-07 23:20 | 1.62737 | -46.13480 | 35947 ft | 498 kts | 310° |
| 2026-05-07 23:21 | 1.67344 | -46.18662 | 35947 ft | 498 kts | 310° |
| 2026-05-07 23:21 | 1.71942 | -46.23836 | 35947 ft | 497 kts | 310° |
| 2026-05-07 23:22 | 1.76538 | -46.29008 | 35947 ft | 497 kts | 310° |
| 2026-05-07 23:22 | 1.81133 | -46.34179 | 35947 ft | 497 kts | 310° |
| 2026-05-07 23:23 | 1.85726 | -46.39347 | 35947 ft | 497 kts | 310° |
| 2026-05-07 23:23 | 1.90321 | -46.44519 | 35944 ft | 498 kts | 310° |
| 2026-05-07 23:24 | 1.94889 | -46.49660 | 35946 ft | 498 kts | 310° |
| 2026-05-07 23:24 | 1.99489 | -46.54838 | 35947 ft | 499 kts | 310° |
| 2026-05-07 23:25 | 2.04095 | -46.60024 | 35948 ft | 499 kts | 310° |
| 2026-05-07 23:25 | 2.08711 | -46.65221 | 35950 ft | 499 kts | 310° |
| 2026-05-07 23:26 | 2.13338 | -46.70410 | 35947 ft | 499 kts | 310° |
| 2026-05-07 23:26 | 2.17963 | -46.75596 | 35947 ft | 500 kts | 310° |
| 2026-05-07 23:27 | 2.24905 | -46.83388 | 35950 ft | 500 kts | 310° |
| 2026-05-07 23:27 | 2.29534 | -46.88586 | 35949 ft | 501 kts | 310° |
| 2026-05-07 23:28 | 2.34133 | -46.93752 | 35947 ft | 501 kts | 310° |
| 2026-05-07 23:28 | 2.38762 | -46.98950 | 35946 ft | 501 kts | 310° |
| 2026-05-07 23:29 | 2.43401 | -47.04161 | 35950 ft | 502 kts | 310° |
| 2026-05-07 23:29 | 2.48043 | -47.09376 | 35949 ft | 502 kts | 310° |
| 2026-05-07 23:30 | 2.51900 | -47.13710 | 35949 ft | 502 kts | 310° |
| 2026-05-07 23:30 | 2.56539 | -47.18922 | 35947 ft | 502 kts | 310° |
| 2026-05-07 23:31 | 2.61189 | -47.24148 | 35949 ft | 502 kts | 310° |
| 2026-05-07 23:31 | 2.65836 | -47.29370 | 35949 ft | 502 kts | 310° |
| 2026-05-07 23:32 | 2.70480 | -47.34591 | 35949 ft | 502 kts | 310° |
| 2026-05-07 23:32 | 2.75129 | -47.39818 | 35949 ft | 502 kts | 310° |
| 2026-05-07 23:33 | 2.79773 | -47.45039 | 35949 ft | 503 kts | 310° |
| 2026-05-07 23:33 | 2.84392 | -47.50233 | 35949 ft | 502 kts | 310° |
| 2026-05-07 23:34 | 2.89041 | -47.55461 | 35952 ft | 502 kts | 310° |
| 2026-05-07 23:34 | 2.93680 | -47.60679 | 35952 ft | 502 kts | 310° |
| 2026-05-07 23:35 | 2.98318 | -47.65897 | 35952 ft | 502 kts | 310° |
| 2026-05-07 23:35 | 3.02958 | -47.71117 | 35952 ft | 502 kts | 310° |
| 2026-05-07 23:36 | 3.07598 | -47.76338 | 35952 ft | 502 kts | 310° |
| 2026-05-07 23:36 | 3.12237 | -47.81559 | 35954 ft | 502 kts | 310° |
| 2026-05-07 23:37 | 3.16872 | -47.86777 | 35952 ft | 502 kts | 310° |
| 2026-05-07 23:37 | 3.21520 | -47.92008 | 35952 ft | 502 kts | 310° |
| 2026-05-07 23:38 | 3.26153 | -47.97224 | 35955 ft | 502 kts | 310° |
| 2026-05-07 23:38 | 3.30761 | -48.02415 | 35956 ft | 502 kts | 310° |
| 2026-05-07 23:39 | 3.35393 | -48.07631 | 35952 ft | 501 kts | 310° |
| 2026-05-07 23:39 | 3.40027 | -48.12850 | 35952 ft | 501 kts | 310° |
| 2026-05-07 23:40 | 3.44661 | -48.18071 | 35952 ft | 501 kts | 310° |
| 2026-05-07 23:40 | 3.49282 | -48.23278 | 35951 ft | 501 kts | 310° |
| 2026-05-07 23:41 | 3.53913 | -48.28497 | 35955 ft | 501 kts | 310° |
| 2026-05-07 23:41 | 3.58541 | -48.33713 | 35955 ft | 501 kts | 310° |
| 2026-05-07 23:42 | 3.63164 | -48.38925 | 35955 ft | 501 kts | 310° |
| 2026-05-07 23:42 | 3.67755 | -48.44102 | 35953 ft | 501 kts | 310° |
| 2026-05-07 23:43 | 3.72380 | -48.49317 | 35954 ft | 501 kts | 310° |
| 2026-05-07 23:43 | 3.77013 | -48.54543 | 35955 ft | 502 kts | 310° |
| 2026-05-07 23:44 | 3.81643 | -48.59766 | 35955 ft | 502 kts | 310° |
| 2026-05-07 23:44 | 3.86280 | -48.64998 | 35955 ft | 502 kts | 310° |
| 2026-05-07 23:45 | 3.90914 | -48.70228 | 35952 ft | 502 kts | 310° |
| 2026-05-07 23:45 | 3.95553 | -48.75463 | 35955 ft | 502 kts | 310° |
| 2026-05-07 23:46 | 4.00179 | -48.80685 | 35955 ft | 502 kts | 310° |
| 2026-05-07 23:46 | 4.04815 | -48.85920 | 35956 ft | 502 kts | 309° |
| 2026-05-07 23:47 | 4.09451 | -48.91156 | 35955 ft | 502 kts | 309° |
| 2026-05-07 23:47 | 4.14086 | -48.96392 | 35955 ft | 502 kts | 309° |
| 2026-05-07 23:48 | 4.18701 | -49.01605 | 35955 ft | 502 kts | 309° |
| 2026-05-07 23:48 | 4.23333 | -49.06840 | 35955 ft | 502 kts | 309° |
| 2026-05-07 23:49 | 4.27968 | -49.12077 | 35955 ft | 502 kts | 309° |
| 2026-05-07 23:49 | 4.32608 | -49.17323 | 35955 ft | 502 kts | 309° |
| 2026-05-07 23:50 | 4.37243 | -49.22564 | 35955 ft | 503 kts | 309° |
| 2026-05-07 23:50 | 4.41884 | -49.27812 | 35955 ft | 503 kts | 309° |
| 2026-05-07 23:51 | 4.46523 | -49.33059 | 35955 ft | 503 kts | 309° |
| 2026-05-07 23:51 | 4.51174 | -49.38321 | 35955 ft | 504 kts | 309° |
| 2026-05-07 23:52 | 4.55793 | -49.43548 | 35955 ft | 504 kts | 309° |
| 2026-05-07 23:52 | 4.60442 | -49.48809 | 35955 ft | 504 kts | 309° |
| 2026-05-07 23:53 | 4.65085 | -49.54066 | 35956 ft | 504 kts | 309° |
| 2026-05-07 23:53 | 4.69733 | -49.59329 | 35955 ft | 504 kts | 309° |
| 2026-05-07 23:54 | 4.74379 | -49.64585 | 36280 ft | 502 kts | 310° |
| 2026-05-07 23:54 | 4.76749 | -49.67142 | 36680 ft | 499 kts | 311° |
| 2026-05-07 23:54 | 4.79155 | -49.69635 | 37019 ft | 497 kts | 312° |
| 2026-05-07 23:55 | 4.81572 | -49.72107 | 37315 ft | 496 kts | 312° |
| 2026-05-07 23:55 | 4.83986 | -49.74575 | 37598 ft | 494 kts | 311° |
| 2026-05-07 23:55 | 4.86387 | -49.77043 | 37849 ft | 493 kts | 311° |
| 2026-05-07 23:55 | 4.88779 | -49.79518 | 37951 ft | 496 kts | 311° |
| 2026-05-07 23:56 | 4.93548 | -49.84485 | 37957 ft | 497 kts | 311° |
| 2026-05-07 23:56 | 4.98342 | -49.89490 | 37957 ft | 496 kts | 311° |
| 2026-05-07 23:57 | 5.03127 | -49.94487 | 37961 ft | 496 kts | 311° |
| 2026-05-07 23:57 | 5.07906 | -49.99479 | 37961 ft | 496 kts | 311° |
| 2026-05-07 23:58 | 5.12682 | -50.04467 | 37961 ft | 496 kts | 311° |
| 2026-05-07 23:58 | 5.17461 | -50.09459 | 37961 ft | 496 kts | 311° |
| 2026-05-07 23:59 | 5.22241 | -50.14452 | 37961 ft | 496 kts | 311° |
| 2026-05-07 23:59 | 5.27021 | -50.19447 | 37956 ft | 496 kts | 311° |
| 2026-05-08 00:00 | 5.31789 | -50.24432 | 37963 ft | 494 kts | 311° |
| 2026-05-08 00:00 | 5.36538 | -50.29397 | 37963 ft | 493 kts | 311° |
| 2026-05-08 00:01 | 5.41295 | -50.34372 | 37961 ft | 493 kts | 311° |
| 2026-05-08 00:01 | 5.46014 | -50.39308 | 37961 ft | 493 kts | 311° |
| 2026-05-08 00:02 | 5.50768 | -50.44282 | 37961 ft | 494 kts | 311° |
| 2026-05-08 00:02 | 5.55523 | -50.49259 | 37963 ft | 494 kts | 311° |
| 2026-05-08 00:03 | 5.60285 | -50.54244 | 37964 ft | 494 kts | 311° |
| 2026-05-08 00:03 | 5.65043 | -50.59225 | 37966 ft | 494 kts | 311° |
| 2026-05-08 00:04 | 5.69800 | -50.64207 | 37966 ft | 494 kts | 311° |
| 2026-05-08 00:04 | 5.74560 | -50.69195 | 37967 ft | 496 kts | 311° |
| 2026-05-08 00:05 | 5.79344 | -50.74207 | 37964 ft | 496 kts | 311° |
| 2026-05-08 00:05 | 5.84125 | -50.79218 | 37963 ft | 496 kts | 311° |
| 2026-05-08 00:06 | 5.88867 | -50.84190 | 37966 ft | 496 kts | 311° |
| 2026-05-08 00:06 | 5.93651 | -50.89205 | 37967 ft | 496 kts | 310° |
| 2026-05-08 00:07 | 5.98406 | -50.94193 | 37966 ft | 494 kts | 310° |
| 2026-05-08 00:07 | 6.03151 | -50.99172 | 37966 ft | 493 kts | 310° |
| 2026-05-08 00:08 | 6.07897 | -51.04154 | 37966 ft | 493 kts | 310° |
| 2026-05-08 00:08 | 6.12638 | -51.09131 | 37966 ft | 493 kts | 310° |
| 2026-05-08 00:09 | 6.17358 | -51.14088 | 37966 ft | 493 kts | 310° |
| 2026-05-08 00:09 | 6.22106 | -51.19076 | 37966 ft | 493 kts | 310° |
| 2026-05-08 00:10 | 6.26839 | -51.24048 | 37966 ft | 491 kts | 310° |
| 2026-05-08 00:10 | 6.31558 | -51.29007 | 37966 ft | 490 kts | 310° |
| 2026-05-08 00:11 | 6.36269 | -51.33960 | 37970 ft | 490 kts | 310° |
| 2026-05-08 00:11 | 6.40973 | -51.38908 | 37966 ft | 489 kts | 310° |
| 2026-05-08 00:12 | 6.45681 | -51.43859 | 37969 ft | 489 kts | 310° |
| 2026-05-08 00:12 | 6.50385 | -51.48810 | 37969 ft | 489 kts | 310° |
| 2026-05-08 00:13 | 6.55090 | -51.53762 | 37971 ft | 489 kts | 310° |
| 2026-05-08 00:13 | 6.59796 | -51.58716 | 37972 ft | 489 kts | 311° |
| 2026-05-08 00:14 | 6.64489 | -51.63658 | 37972 ft | 489 kts | 311° |
| 2026-05-08 00:14 | 6.69183 | -51.68603 | 37972 ft | 489 kts | 311° |
| 2026-05-08 00:15 | 6.73811 | -51.73607 | 37969 ft | 487 kts | 308° |
| 2026-05-08 00:15 | 6.78110 | -51.78810 | 37971 ft | 487 kts | 306° |
| 2026-05-08 00:16 | 6.82402 | -51.84082 | 37972 ft | 487 kts | 307° |
| 2026-05-08 00:16 | 6.86734 | -51.89314 | 37972 ft | 487 kts | 307° |
| 2026-05-08 00:17 | 6.91092 | -51.94527 | 37971 ft | 487 kts | 307° |
| 2026-05-08 00:17 | 6.95462 | -51.99745 | 37972 ft | 487 kts | 307° |
| 2026-05-08 00:18 | 6.99828 | -52.04963 | 37972 ft | 487 kts | 307° |
| 2026-05-08 00:18 | 7.04185 | -52.10175 | 37971 ft | 486 kts | 307° |
| 2026-05-08 00:19 | 7.08521 | -52.15364 | 37974 ft | 486 kts | 307° |
| 2026-05-08 00:19 | 7.12878 | -52.20580 | 37974 ft | 486 kts | 307° |
| 2026-05-08 00:20 | 7.17233 | -52.25794 | 37974 ft | 486 kts | 307° |
| 2026-05-08 00:20 | 7.21590 | -52.31014 | 37975 ft | 486 kts | 308° |
| 2026-05-08 00:21 | 7.25942 | -52.36229 | 37974 ft | 486 kts | 308° |
| 2026-05-08 00:21 | 7.30290 | -52.41440 | 37974 ft | 486 kts | 308° |
| 2026-05-08 00:22 | 7.33908 | -52.45779 | 37976 ft | 486 kts | 308° |
| 2026-05-08 00:22 | 7.38257 | -52.50995 | 37977 ft | 486 kts | 308° |
| 2026-05-08 00:23 | 7.42608 | -52.56215 | 37976 ft | 486 kts | 308° |
| 2026-05-08 00:23 | 7.46953 | -52.61430 | 37979 ft | 486 kts | 308° |
| 2026-05-08 00:24 | 7.51296 | -52.66644 | 37976 ft | 486 kts | 308° |
| 2026-05-08 00:24 | 7.55636 | -52.71857 | 37979 ft | 486 kts | 308° |
| 2026-05-08 00:25 | 7.59980 | -52.77076 | 37979 ft | 486 kts | 307° |
| 2026-05-08 00:25 | 7.64326 | -52.82299 | 37978 ft | 486 kts | 307° |
| 2026-05-08 00:26 | 7.68670 | -52.87521 | 37978 ft | 486 kts | 307° |
| 2026-05-08 00:26 | 7.73012 | -52.92744 | 37982 ft | 486 kts | 307° |
| 2026-05-08 00:27 | 7.77358 | -52.97973 | 37982 ft | 486 kts | 307° |
| 2026-05-08 00:27 | 7.81700 | -53.03198 | 37984 ft | 486 kts | 307° |
| 2026-05-08 00:28 | 7.86046 | -53.08431 | 37979 ft | 486 kts | 307° |
| 2026-05-08 00:28 | 7.90386 | -53.13659 | 37978 ft | 486 kts | 307° |
| 2026-05-08 00:29 | 7.94732 | -53.18894 | 37982 ft | 487 kts | 307° |
| 2026-05-08 00:29 | 7.99080 | -53.24135 | 37982 ft | 487 kts | 307° |
| 2026-05-08 00:30 | 8.03406 | -53.29350 | 37985 ft | 487 kts | 307° |
| 2026-05-08 00:30 | 8.07744 | -53.34583 | 37979 ft | 486 kts | 307° |
| 2026-05-08 00:31 | 8.12087 | -53.39823 | 37982 ft | 487 kts | 307° |
| 2026-05-08 00:31 | 8.16429 | -53.45064 | 37982 ft | 487 kts | 307° |
| 2026-05-08 00:32 | 8.20768 | -53.50304 | 37988 ft | 487 kts | 307° |
| 2026-05-08 00:32 | 8.25111 | -53.55550 | 37985 ft | 486 kts | 307° |
| 2026-05-08 00:33 | 8.29454 | -53.60797 | 37991 ft | 486 kts | 307° |
| 2026-05-08 00:33 | 8.33792 | -53.66042 | 37990 ft | 487 kts | 307° |
| 2026-05-08 00:34 | 8.38128 | -53.71286 | 37984 ft | 487 kts | 307° |
| 2026-05-08 00:34 | 8.42471 | -53.76539 | 37980 ft | 487 kts | 307° |
| 2026-05-08 00:35 | 8.46803 | -53.81782 | 37988 ft | 486 kts | 307° |
| 2026-05-08 00:35 | 8.51145 | -53.87039 | 37988 ft | 486 kts | 307° |
| 2026-05-08 00:36 | 8.55450 | -53.92254 | 37986 ft | 486 kts | 307° |
| 2026-05-08 00:36 | 8.59783 | -53.97504 | 37993 ft | 487 kts | 307° |
| 2026-05-08 00:37 | 8.64130 | -54.02758 | 37992 ft | 486 kts | 307° |
| 2026-05-08 00:38 | 8.70711 | -54.10560 | 37991 ft | 486 kts | 307° |
| 2026-05-08 00:38 | 8.75105 | -54.15768 | 37989 ft | 486 kts | 307° |
| 2026-05-08 00:39 | 8.79490 | -54.20980 | 37991 ft | 486 kts | 307° |
| 2026-05-08 00:39 | 8.83872 | -54.26195 | 37994 ft | 486 kts | 307° |
| 2026-05-08 00:40 | 8.88246 | -54.31404 | 37991 ft | 486 kts | 307° |
| 2026-05-08 00:40 | 8.92627 | -54.36623 | 37987 ft | 486 kts | 307° |
| 2026-05-08 00:41 | 8.97001 | -54.41835 | 37992 ft | 486 kts | 307° |
| 2026-05-08 00:41 | 9.01381 | -54.47056 | 37988 ft | 486 kts | 307° |
| 2026-05-08 00:42 | 9.05754 | -54.52271 | 37988 ft | 486 kts | 307° |
| 2026-05-08 00:42 | 9.10098 | -54.57453 | 37988 ft | 486 kts | 307° |
| 2026-05-08 00:43 | 9.14473 | -54.62675 | 37994 ft | 486 kts | 307° |
| 2026-05-08 00:43 | 9.18844 | -54.67895 | 37992 ft | 486 kts | 307° |
| 2026-05-08 00:44 | 9.23215 | -54.73116 | 37992 ft | 486 kts | 307° |
| 2026-05-08 00:44 | 9.27569 | -54.78357 | 37997 ft | 486 kts | 307° |
| 2026-05-08 00:45 | 9.31905 | -54.83615 | 37996 ft | 486 kts | 306° |
| 2026-05-08 00:45 | 9.36235 | -54.88865 | 37993 ft | 486 kts | 307° |
| 2026-05-08 00:46 | 9.40569 | -54.94118 | 37996 ft | 486 kts | 307° |
| 2026-05-08 00:46 | 9.44880 | -54.99342 | 37996 ft | 486 kts | 307° |
| 2026-05-08 00:47 | 9.49240 | -55.04626 | 37994 ft | 485 kts | 306° |
| 2026-05-08 00:47 | 9.53543 | -55.09845 | 37995 ft | 485 kts | 306° |
| 2026-05-08 00:48 | 9.57869 | -55.15095 | 37999 ft | 485 kts | 306° |
| 2026-05-08 00:48 | 9.62198 | -55.20351 | 37999 ft | 485 kts | 306° |
| 2026-05-08 00:49 | 9.66524 | -55.25605 | 37995 ft | 486 kts | 306° |
| 2026-05-08 00:49 | 9.70855 | -55.30867 | 37998 ft | 486 kts | 306° |
| 2026-05-08 00:50 | 9.75186 | -55.36132 | 37993 ft | 486 kts | 306° |
| 2026-05-08 00:50 | 9.79509 | -55.41390 | 37994 ft | 486 kts | 306° |
| 2026-05-08 00:51 | 9.83839 | -55.46658 | 38001 ft | 486 kts | 306° |
| 2026-05-08 00:51 | 9.88163 | -55.51921 | 37994 ft | 486 kts | 306° |
| 2026-05-08 00:52 | 9.92485 | -55.57184 | 37992 ft | 486 kts | 306° |
| 2026-05-08 00:52 | 9.96784 | -55.62421 | 38006 ft | 486 kts | 306° |
| 2026-05-08 00:53 | 10.01106 | -55.67689 | 38002 ft | 486 kts | 306° |
| 2026-05-08 00:53 | 10.05426 | -55.72957 | 38003 ft | 486 kts | 306° |
| 2026-05-08 00:54 | 10.09747 | -55.78228 | 38002 ft | 486 kts | 306° |
| 2026-05-08 00:54 | 10.14068 | -55.83503 | 38011 ft | 485 kts | 306° |
| 2026-05-08 00:55 | 10.18385 | -55.88774 | 37996 ft | 485 kts | 306° |
| 2026-05-08 00:55 | 10.22696 | -55.94041 | 37996 ft | 485 kts | 306° |
| 2026-05-08 00:56 | 10.27012 | -55.99316 | 38007 ft | 485 kts | 306° |
| 2026-05-08 00:56 | 10.31327 | -56.04593 | 38009 ft | 485 kts | 306° |
| 2026-05-08 00:57 | 10.35641 | -56.09870 | 38006 ft | 485 kts | 306° |
| 2026-05-08 00:57 | 10.39948 | -56.15142 | 38004 ft | 485 kts | 306° |
| 2026-05-08 00:58 | 10.44224 | -56.20378 | 38006 ft | 485 kts | 306° |
| 2026-05-08 00:58 | 10.48531 | -56.25654 | 38006 ft | 485 kts | 306° |
| 2026-05-08 00:59 | 10.52834 | -56.30929 | 38009 ft | 485 kts | 306° |
| 2026-05-08 00:59 | 10.57134 | -56.36202 | 38006 ft | 484 kts | 306° |
| 2026-05-08 01:00 | 10.61424 | -56.41466 | 38019 ft | 484 kts | 306° |
| 2026-05-08 01:00 | 10.65721 | -56.46741 | 38008 ft | 483 kts | 306° |
| 2026-05-08 01:01 | 10.69979 | -56.51971 | 38006 ft | 483 kts | 306° |
| 2026-05-08 01:01 | 10.74265 | -56.57240 | 38008 ft | 483 kts | 305° |
| 2026-05-08 01:02 | 10.78539 | -56.62497 | 38008 ft | 482 kts | 305° |
| 2026-05-08 01:02 | 10.82805 | -56.67749 | 38009 ft | 481 kts | 305° |
| 2026-05-08 01:03 | 10.87065 | -56.72998 | 38010 ft | 481 kts | 305° |
| 2026-05-08 01:03 | 10.91326 | -56.78249 | 38008 ft | 481 kts | 305° |
| 2026-05-08 01:04 | 10.95589 | -56.83506 | 38010 ft | 481 kts | 305° |
| 2026-05-08 01:04 | 10.99844 | -56.88754 | 38010 ft | 480 kts | 305° |
| 2026-05-08 01:05 | 11.04095 | -56.94001 | 38009 ft | 480 kts | 305° |
| 2026-05-08 01:05 | 11.08339 | -56.99241 | 38012 ft | 480 kts | 304° |
| 2026-05-08 01:06 | 11.12584 | -57.04487 | 38009 ft | 479 kts | 304° |
| 2026-05-08 01:06 | 11.16796 | -57.09693 | 38010 ft | 479 kts | 304° |
| 2026-05-08 01:07 | 11.21031 | -57.14932 | 38009 ft | 479 kts | 304° |
| 2026-05-08 01:07 | 11.25266 | -57.20172 | 38009 ft | 478 kts | 304° |
| 2026-05-08 01:08 | 11.29489 | -57.25400 | 38012 ft | 478 kts | 304° |
| 2026-05-08 01:08 | 11.33717 | -57.30637 | 38012 ft | 478 kts | 304° |
| 2026-05-08 01:09 | 11.37949 | -57.35881 | 38011 ft | 478 kts | 304° |
| 2026-05-08 01:09 | 11.41457 | -57.40231 | 38015 ft | 478 kts | 304° |
| 2026-05-08 01:10 | 11.45680 | -57.45468 | 38016 ft | 477 kts | 304° |
| 2026-05-08 01:10 | 11.49891 | -57.50693 | 38015 ft | 477 kts | 304° |
| 2026-05-08 01:11 | 11.54104 | -57.55925 | 38013 ft | 477 kts | 304° |
| 2026-05-08 01:11 | 11.58318 | -57.61162 | 38015 ft | 477 kts | 304° |
| 2026-05-08 01:12 | 11.62521 | -57.66386 | 38018 ft | 477 kts | 304° |
| 2026-05-08 01:12 | 11.66728 | -57.71618 | 38015 ft | 476 kts | 304° |
| 2026-05-08 01:13 | 11.70925 | -57.76840 | 38015 ft | 476 kts | 304° |
| 2026-05-08 01:13 | 11.75124 | -57.82068 | 38015 ft | 476 kts | 304° |
| 2026-05-08 01:14 | 11.79316 | -57.87290 | 38013 ft | 476 kts | 304° |
| 2026-05-08 01:14 | 11.83484 | -57.92484 | 38016 ft | 475 kts | 303° |
| 2026-05-08 01:15 | 11.87670 | -57.97703 | 38019 ft | 475 kts | 303° |
| 2026-05-08 01:15 | 11.91863 | -58.02935 | 38014 ft | 475 kts | 303° |
| 2026-05-08 01:16 | 11.96054 | -58.08167 | 38019 ft | 475 kts | 303° |
| 2026-05-08 01:16 | 12.00238 | -58.13394 | 38021 ft | 475 kts | 303° |
| 2026-05-08 01:17 | 12.04421 | -58.18621 | 38020 ft | 475 kts | 303° |
| 2026-05-08 01:17 | 12.08610 | -58.23859 | 38020 ft | 476 kts | 303° |
| 2026-05-08 01:18 | 12.12797 | -58.29096 | 38024 ft | 476 kts | 303° |
| 2026-05-08 01:18 | 12.16985 | -58.34339 | 38046 ft | 476 kts | 303° |
| 2026-05-08 01:19 | 12.21153 | -58.39559 | 38021 ft | 477 kts | 303° |
| 2026-05-08 01:19 | 12.25351 | -58.44820 | 38020 ft | 478 kts | 303° |
| 2026-05-08 01:20 | 12.29550 | -58.50084 | 38023 ft | 478 kts | 303° |
| 2026-05-08 01:20 | 12.33756 | -58.55361 | 38026 ft | 479 kts | 303° |
| 2026-05-08 01:21 | 12.37960 | -58.60637 | 38026 ft | 479 kts | 303° |
| 2026-05-08 01:21 | 12.42166 | -58.65919 | 38026 ft | 479 kts | 303° |
| 2026-05-08 01:22 | 12.46369 | -58.71201 | 38026 ft | 479 kts | 303° |
| 2026-05-08 01:22 | 12.50575 | -58.76489 | 38026 ft | 479 kts | 302° |
| 2026-05-08 01:23 | 12.54773 | -58.81770 | 38028 ft | 479 kts | 302° |
| 2026-05-08 01:23 | 12.58976 | -58.87061 | 38029 ft | 479 kts | 302° |
| 2026-05-08 01:24 | 12.63154 | -58.92323 | 38029 ft | 479 kts | 302° |
| 2026-05-08 01:24 | 12.67352 | -58.97614 | 38029 ft | 479 kts | 302° |
| 2026-05-08 01:25 | 12.71552 | -59.02910 | 38032 ft | 479 kts | 302° |
| 2026-05-08 01:25 | 12.75751 | -59.08207 | 38029 ft | 479 kts | 302° |
| 2026-05-08 01:26 | 12.79953 | -59.13512 | 38029 ft | 479 kts | 302° |
| 2026-05-08 01:26 | 12.84151 | -59.18815 | 38018 ft | 479 kts | 302° |
| 2026-05-08 01:27 | 12.88349 | -59.24120 | 38013 ft | 479 kts | 302° |
| 2026-05-08 01:27 | 12.92545 | -59.29426 | 38001 ft | 479 kts | 302° |
| 2026-05-08 01:28 | 12.96751 | -59.34749 | 37998 ft | 481 kts | 302° |
| 2026-05-08 01:28 | 13.00961 | -59.40082 | 38001 ft | 481 kts | 302° |
| 2026-05-08 01:29 | 13.05177 | -59.45421 | 37991 ft | 482 kts | 302° |
| 2026-05-08 01:29 | 13.09655 | -59.50519 | 37990 ft | 487 kts | 308° |
| 2026-05-08 01:30 | 13.14481 | -59.55432 | 37992 ft | 488 kts | 309° |
| 2026-05-08 01:30 | 13.19343 | -59.60308 | 38012 ft | 488 kts | 309° |
| 2026-05-08 01:31 | 13.24202 | -59.65186 | 38003 ft | 489 kts | 309° |
| 2026-05-08 01:31 | 13.29057 | -59.70076 | 38017 ft | 489 kts | 309° |
| 2026-05-08 01:32 | 13.33908 | -59.74969 | 38022 ft | 489 kts | 309° |
| 2026-05-08 01:32 | 13.38739 | -59.79846 | 38023 ft | 489 kts | 309° |
| 2026-05-08 01:33 | 13.43595 | -59.84750 | 38030 ft | 489 kts | 309° |
| 2026-05-08 01:33 | 13.48450 | -59.89656 | 38035 ft | 489 kts | 309° |
| 2026-05-08 01:34 | 13.53295 | -59.94553 | 38042 ft | 489 kts | 309° |
| 2026-05-08 01:34 | 13.58140 | -59.99456 | 38039 ft | 488 kts | 308° |
| 2026-05-08 01:35 | 13.62982 | -60.04358 | 38040 ft | 488 kts | 308° |
| 2026-05-08 01:35 | 13.67820 | -60.09258 | 38046 ft | 488 kts | 308° |
| 2026-05-08 01:36 | 13.72620 | -60.14123 | 38045 ft | 487 kts | 308° |
| 2026-05-08 01:36 | 13.77447 | -60.19019 | 38050 ft | 487 kts | 308° |
| 2026-05-08 01:37 | 13.82260 | -60.23903 | 38048 ft | 486 kts | 308° |
| 2026-05-08 01:37 | 13.87070 | -60.28788 | 38029 ft | 486 kts | 308° |
| 2026-05-08 01:38 | 13.91875 | -60.33670 | 38026 ft | 486 kts | 308° |
| 2026-05-08 01:38 | 13.96685 | -60.38561 | 38033 ft | 486 kts | 308° |
| 2026-05-08 01:39 | 14.01496 | -60.43455 | 38039 ft | 485 kts | 308° |
| 2026-05-08 01:39 | 14.06287 | -60.48331 | 38040 ft | 484 kts | 308° |
| 2026-05-08 01:40 | 14.11063 | -60.53196 | 38036 ft | 483 kts | 308° |
| 2026-05-08 01:40 | 14.15840 | -60.58066 | 38036 ft | 483 kts | 308° |
| 2026-05-08 01:41 | 14.20615 | -60.62937 | 38036 ft | 483 kts | 308° |
| 2026-05-08 01:41 | 14.25387 | -60.67806 | 38033 ft | 483 kts | 308° |
| 2026-05-08 01:42 | 14.30132 | -60.72652 | 38036 ft | 483 kts | 308° |
| 2026-05-08 01:42 | 14.34898 | -60.77523 | 38029 ft | 482 kts | 308° |
| 2026-05-08 01:43 | 14.39656 | -60.82387 | 38030 ft | 480 kts | 309° |
| 2026-05-08 01:43 | 14.44396 | -60.87234 | 38026 ft | 480 kts | 309° |
| 2026-05-08 01:44 | 14.49129 | -60.92079 | 38025 ft | 479 kts | 309° |
| 2026-05-08 01:44 | 14.53864 | -60.96930 | 38046 ft | 479 kts | 309° |
| 2026-05-08 01:45 | 14.58590 | -61.01775 | 38046 ft | 479 kts | 309° |
| 2026-05-08 01:45 | 14.63191 | -61.06733 | 38049 ft | 476 kts | 306° |
| 2026-05-08 01:46 | 14.67567 | -61.11841 | 38051 ft | 475 kts | 305° |
| 2026-05-08 01:46 | 14.71951 | -61.16950 | 38038 ft | 475 kts | 306° |
| 2026-05-08 01:47 | 14.76373 | -61.22035 | 38039 ft | 475 kts | 306° |
| 2026-05-08 01:47 | 14.80805 | -61.27105 | 38046 ft | 475 kts | 306° |
| 2026-05-08 01:48 | 14.87419 | -61.34671 | 38046 ft | 475 kts | 307° |
| 2026-05-08 01:48 | 14.91854 | -61.39752 | 38045 ft | 475 kts | 307° |
| 2026-05-08 01:49 | 14.96285 | -61.44832 | 38058 ft | 476 kts | 307° |
| 2026-05-08 01:49 | 15.00710 | -61.49909 | 38056 ft | 476 kts | 307° |
| 2026-05-08 01:50 | 15.05140 | -61.54995 | 38054 ft | 475 kts | 307° |
| 2026-05-08 01:50 | 15.09565 | -61.60078 | 38053 ft | 475 kts | 307° |
| 2026-05-08 01:51 | 15.13993 | -61.65170 | 38057 ft | 476 kts | 307° |
| 2026-05-08 01:51 | 15.18425 | -61.70268 | 38054 ft | 476 kts | 307° |
| 2026-05-08 01:52 | 15.22832 | -61.75341 | 38056 ft | 476 kts | 307° |
| 2026-05-08 01:52 | 15.27260 | -61.80441 | 38058 ft | 476 kts | 307° |
| 2026-05-08 01:53 | 15.31686 | -61.85544 | 38060 ft | 476 kts | 307° |
| 2026-05-08 01:53 | 15.36115 | -61.90653 | 38059 ft | 476 kts | 307° |
| 2026-05-08 01:54 | 15.40541 | -61.95764 | 38059 ft | 476 kts | 308° |
| 2026-05-08 01:54 | 15.44961 | -62.00868 | 38058 ft | 476 kts | 308° |
| 2026-05-08 01:55 | 15.49379 | -62.05976 | 38061 ft | 475 kts | 308° |
| 2026-05-08 01:55 | 15.53760 | -62.11041 | 38057 ft | 474 kts | 308° |
| 2026-05-08 01:56 | 15.58163 | -62.16138 | 38058 ft | 474 kts | 308° |
| 2026-05-08 01:56 | 15.62562 | -62.21235 | 38057 ft | 474 kts | 308° |
| 2026-05-08 01:57 | 15.66959 | -62.26337 | 38058 ft | 474 kts | 309° |
| 2026-05-08 01:57 | 15.71353 | -62.31437 | 38062 ft | 474 kts | 309° |
| 2026-05-08 01:58 | 15.75749 | -62.36542 | 38063 ft | 474 kts | 309° |
| 2026-05-08 01:58 | 15.80143 | -62.41649 | 38058 ft | 474 kts | 309° |
| 2026-05-08 01:59 | 15.83795 | -62.45897 | 38058 ft | 474 kts | 309° |
| 2026-05-08 01:59 | 15.88187 | -62.51009 | 38061 ft | 474 kts | 310° |
| 2026-05-08 02:00 | 15.92574 | -62.56121 | 38064 ft | 475 kts | 310° |
| 2026-05-08 02:00 | 15.96968 | -62.61242 | 38062 ft | 475 kts | 310° |
| 2026-05-08 02:01 | 16.01366 | -62.66371 | 38062 ft | 474 kts | 310° |
| 2026-05-08 02:01 | 16.05752 | -62.71490 | 38061 ft | 474 kts | 310° |
| 2026-05-08 02:02 | 16.10135 | -62.76609 | 38061 ft | 474 kts | 310° |
| 2026-05-08 02:02 | 16.14522 | -62.81737 | 38062 ft | 475 kts | 310° |
| 2026-05-08 02:03 | 16.18917 | -62.86881 | 38061 ft | 475 kts | 311° |
| 2026-05-08 02:03 | 16.23280 | -62.91986 | 38063 ft | 474 kts | 310° |
| 2026-05-08 02:04 | 16.27649 | -62.97103 | 38062 ft | 474 kts | 311° |
| 2026-05-08 02:04 | 16.32029 | -63.02239 | 38060 ft | 475 kts | 311° |
| 2026-05-08 02:05 | 16.36420 | -63.07392 | 38061 ft | 475 kts | 311° |
| 2026-05-08 02:05 | 16.40799 | -63.12534 | 38064 ft | 474 kts | 310° |
| 2026-05-08 02:06 | 16.45166 | -63.17667 | 38062 ft | 474 kts | 311° |
| 2026-05-08 02:06 | 16.49546 | -63.22816 | 38057 ft | 476 kts | 311° |
| 2026-05-08 02:07 | 16.53943 | -63.27989 | 38061 ft | 476 kts | 311° |
| 2026-05-08 02:07 | 16.58324 | -63.33150 | 38067 ft | 475 kts | 312° |
| 2026-05-08 02:08 | 16.62702 | -63.38312 | 38063 ft | 477 kts | 313° |
| 2026-05-08 02:08 | 16.67101 | -63.43498 | 38060 ft | 478 kts | 313° |
| 2026-05-08 02:09 | 16.71506 | -63.48698 | 38064 ft | 478 kts | 313° |
| 2026-05-08 02:09 | 16.75877 | -63.53860 | 38068 ft | 478 kts | 313° |
| 2026-05-08 02:10 | 16.80289 | -63.59075 | 38071 ft | 478 kts | 313° |
| 2026-05-08 02:10 | 16.84685 | -63.64275 | 38071 ft | 478 kts | 313° |
| 2026-05-08 02:11 | 16.89083 | -63.69482 | 38071 ft | 478 kts | 313° |
| 2026-05-08 02:11 | 16.93482 | -63.74695 | 38063 ft | 478 kts | 314° |
| 2026-05-08 02:12 | 16.97885 | -63.79917 | 38070 ft | 478 kts | 314° |
| 2026-05-08 02:12 | 17.02283 | -63.85135 | 38068 ft | 479 kts | 314° |
| 2026-05-08 02:13 | 17.06680 | -63.90356 | 38069 ft | 479 kts | 314° |
| 2026-05-08 02:13 | 17.11054 | -63.95555 | 38069 ft | 479 kts | 314° |
| 2026-05-08 02:14 | 17.15449 | -64.00783 | 38069 ft | 479 kts | 314° |
| 2026-05-08 02:14 | 17.19841 | -64.06010 | 38065 ft | 479 kts | 315° |
| 2026-05-08 02:15 | 17.24243 | -64.11245 | 38071 ft | 479 kts | 315° |
| 2026-05-08 02:15 | 17.28647 | -64.16485 | 38073 ft | 480 kts | 315° |
| 2026-05-08 02:16 | 17.33051 | -64.21732 | 38068 ft | 480 kts | 315° |
| 2026-05-08 02:16 | 17.37454 | -64.26985 | 38073 ft | 480 kts | 315° |
| 2026-05-08 02:17 | 17.41857 | -64.32238 | 38071 ft | 480 kts | 315° |
| 2026-05-08 02:17 | 17.46256 | -64.37492 | 38065 ft | 479 kts | 316° |
| 2026-05-08 02:18 | 17.50616 | -64.42705 | 38075 ft | 479 kts | 316° |
| 2026-05-08 02:18 | 17.55005 | -64.47954 | 38075 ft | 478 kts | 316° |
| 2026-05-08 02:19 | 17.59389 | -64.53202 | 38075 ft | 479 kts | 316° |
| 2026-05-08 02:19 | 17.63774 | -64.58455 | 38075 ft | 479 kts | 316° |
| 2026-05-08 02:20 | 17.68165 | -64.63721 | 38076 ft | 479 kts | 316° |
| 2026-05-08 02:20 | 17.72218 | -64.69285 | 38076 ft | 486 kts | 305° |
| 2026-05-08 02:21 | 17.74712 | -64.75945 | 38078 ft | 498 kts | 290° |
| 2026-05-08 02:21 | 17.76291 | -64.83043 | 38080 ft | 500 kts | 288° |
| 2026-05-08 02:22 | 17.77803 | -64.90143 | 38211 ft | 496 kts | 289° |
| 2026-05-08 02:22 | 17.79604 | -64.97104 | 38288 ft | 492 kts | 292° |
| 2026-05-08 02:23 | 17.81842 | -65.03863 | 38258 ft | 489 kts | 297° |
| 2026-05-08 02:23 | 17.84577 | -65.10298 | 38323 ft | 483 kts | 303° |
| 2026-05-08 02:24 | 17.87884 | -65.16376 | 38319 ft | 477 kts | 309° |
| 2026-05-08 02:24 | 17.91762 | -65.21994 | 38242 ft | 473 kts | 315° |
| 2026-05-08 02:25 | 17.96183 | -65.27054 | 38221 ft | 467 kts | 322° |
| 2026-05-08 02:25 | 18.01077 | -65.31461 | 38259 ft | 460 kts | 328° |
| 2026-05-08 02:26 | 18.06373 | -65.35150 | 38361 ft | 453 kts | 335° |
| 2026-05-08 02:26 | 18.11983 | -65.38067 | 38339 ft | 449 kts | 342° |
| 2026-05-08 02:27 | 18.17860 | -65.40197 | 38340 ft | 444 kts | 348° |
| 2026-05-08 02:27 | 18.23868 | -65.41485 | 38442 ft | 438 kts | 355° |
| 2026-05-08 02:28 | 18.29882 | -65.41924 | 38406 ft | 436 kts | 2° |
| 2026-05-08 02:28 | 18.35947 | -65.41524 | 38303 ft | 436 kts | 8° |
| 2026-05-08 02:29 | 18.41891 | -65.40303 | 38311 ft | 435 kts | 15° |
| 2026-05-08 02:29 | 18.47610 | -65.38293 | 38413 ft | 432 kts | 21° |
| 2026-05-08 02:30 | 18.53002 | -65.35510 | 38446 ft | 433 kts | 28° |
| 2026-05-08 02:30 | 18.58031 | -65.31981 | 38351 ft | 436 kts | 35° |
| 2026-05-08 02:31 | 18.62625 | -65.27762 | 38305 ft | 440 kts | 41° |
| 2026-05-08 02:31 | 18.66029 | -65.23817 | 38284 ft | 443 kts | 47° |
| 2026-05-08 02:32 | 18.68926 | -65.19661 | 38296 ft | 446 kts | 52° |
| 2026-05-08 02:32 | 18.72000 | -65.13957 | 38339 ft | 450 kts | 59° |
| 2026-05-08 02:33 | 18.74284 | -65.07822 | 38348 ft | 456 kts | 67° |
| 2026-05-08 02:33 | 18.75737 | -65.01288 | 38213 ft | 457 kts | 74° |
| 2026-05-08 02:34 | 18.76151 | -64.97974 | 37698 ft | 455 kts | 78° |
| 2026-05-08 02:34 | 18.76325 | -64.95703 | 37083 ft | 459 kts | 80° |